sensor_id;sensor_type;location;lat;lon;timestamp;P1;durP1;ratioP1;P2;durP2;ratioP2
67751;SDS011;54551;51.068;5.826;2022-12-29T00:02:09;1.43;;;1.33;;
67751;SDS011;54551;51.068;5.826;2022-12-29T00:04:35;1.50;;;1.20;;
67751;SDS011;54551;51.068;5.826;2022-12-29T00:07:01;1.27;;;1.17;;
67751;SDS011;54551;51.068;5.826;2022-12-29T00:09:30;1.30;;;1.20;;
67751;SDS011;54551;51.068;5.826;2022-12-29T00:11:56;1.63;;;1.40;;
67751;SDS011;54551;51.068;5.826;2022-12-29T00:14:23;1.60;;;1.27;;
67751;SDS011;54551;51.068;5.826;2022-12-29T00:17:07;1.50;;;1.40;;
67751;SDS011;54551;51.068;5.826;2022-12-29T00:19:33;1.30;;;1.20;;
67751;SDS011;54551;51.068;5.826;2022-12-29T00:22:18;5.40;;;1.50;;
67751;SDS011;54551;51.068;5.826;2022-12-29T00:25:04;1.20;;;1.10;;
67751;SDS011;54551;51.068;5.826;2022-12-29T00:27:49;1.37;;;1.27;;
67751;SDS011;54551;51.068;5.826;2022-12-29T00:30:33;1.60;;;1.30;;
67751;SDS011;54551;51.068;5.826;2022-12-29T00:33:20;0.90;;;0.90;;
67751;SDS011;54551;51.068;5.826;2022-12-29T00:36:10;0.90;;;0.90;;
67751;SDS011;54551;51.068;5.826;2022-12-29T00:38:41;1.27;;;1.17;;
67751;SDS011;54551;51.068;5.826;2022-12-29T00:41:47;1.60;;;1.00;;
67751;SDS011;54551;51.068;5.826;2022-12-29T00:44:32;0.73;;;0.73;;
67751;SDS011;54551;51.068;5.826;2022-12-29T00:46:58;1.00;;;0.90;;
67751;SDS011;54551;51.068;5.826;2022-12-29T00:49:28;0.80;;;0.80;;
67751;SDS011;54551;51.068;5.826;2022-12-29T00:51:58;2.33;;;0.83;;
67751;SDS011;54551;51.068;5.826;2022-12-29T00:54:30;1.37;;;0.80;;
67751;SDS011;54551;51.068;5.826;2022-12-29T00:56:58;0.80;;;0.80;;
67751;SDS011;54551;51.068;5.826;2022-12-29T00:59:24;1.27;;;0.80;;
67751;SDS011;54551;51.068;5.826;2022-12-29T01:01:51;1.70;;;0.70;;
67751;SDS011;54551;51.068;5.826;2022-12-29T01:04:19;1.03;;;0.93;;
67751;SDS011;54551;51.068;5.826;2022-12-29T01:06:48;0.80;;;0.60;;
67751;SDS011;54551;51.068;5.826;2022-12-29T01:09:15;1.20;;;0.90;;
67751;SDS011;54551;51.068;5.826;2022-12-29T01:12:00;0.83;;;0.83;;
67751;SDS011;54551;51.068;5.826;2022-12-29T01:14:26;1.07;;;0.97;;
67751;SDS011;54551;51.068;5.826;2022-12-29T01:16:53;0.90;;;0.80;;
67751;SDS011;54551;51.068;5.826;2022-12-29T01:19:19;1.10;;;0.90;;
67751;SDS011;54551;51.068;5.826;2022-12-29T01:21:46;1.23;;;0.70;;
67751;SDS011;54551;51.068;5.826;2022-12-29T01:24:13;0.80;;;0.80;;
67751;SDS011;54551;51.068;5.826;2022-12-29T01:26:40;1.00;;;0.80;;
67751;SDS011;54551;51.068;5.826;2022-12-29T01:29:06;0.60;;;0.60;;
67751;SDS011;54551;51.068;5.826;2022-12-29T01:31:32;1.83;;;0.80;;
67751;SDS011;54551;51.068;5.826;2022-12-29T01:33:58;1.67;;;0.90;;
67751;SDS011;54551;51.068;5.826;2022-12-29T01:36:24;1.00;;;0.90;;
67751;SDS011;54551;51.068;5.826;2022-12-29T01:38:50;2.30;;;0.90;;
67751;SDS011;54551;51.068;5.826;2022-12-29T01:41:16;2.23;;;1.00;;
67751;SDS011;54551;51.068;5.826;2022-12-29T01:43:49;1.73;;;0.90;;
67751;SDS011;54551;51.068;5.826;2022-12-29T01:49:34;1.40;;;1.00;;
67751;SDS011;54551;51.068;5.826;2022-12-29T01:51:57;1.80;;;1.00;;
67751;SDS011;54551;51.068;5.826;2022-12-29T01:54:28;3.47;;;1.00;;
67751;SDS011;54551;51.068;5.826;2022-12-29T01:57:03;2.40;;;0.93;;
67751;SDS011;54551;51.068;5.826;2022-12-29T01:59:46;2.57;;;0.80;;
67751;SDS011;54551;51.068;5.826;2022-12-29T02:02:18;2.53;;;1.13;;
67751;SDS011;54551;51.068;5.826;2022-12-29T02:04:44;1.50;;;1.20;;
67751;SDS011;54551;51.068;5.826;2022-12-29T02:07:14;2.43;;;1.10;;
67751;SDS011;54551;51.068;5.826;2022-12-29T02:09:49;2.10;;;1.03;;
67751;SDS011;54551;51.068;5.826;2022-12-29T02:12:17;3.10;;;1.00;;
67751;SDS011;54551;51.068;5.826;2022-12-29T02:14:45;3.73;;;1.07;;
67751;SDS011;54551;51.068;5.826;2022-12-29T02:26:22;4.93;;;1.40;;
67751;SDS011;54551;51.068;5.826;2022-12-29T02:29:27;2.43;;;1.20;;
67751;SDS011;54551;51.068;5.826;2022-12-29T02:32:20;1.67;;;1.07;;
67751;SDS011;54551;51.068;5.826;2022-12-29T02:40:46;2.13;;;1.40;;
67751;SDS011;54551;51.068;5.826;2022-12-29T02:46:44;3.33;;;1.23;;
67751;SDS011;54551;51.068;5.826;2022-12-29T02:49:20;3.37;;;1.20;;
67751;SDS011;54551;51.068;5.826;2022-12-29T02:54:30;1.17;;;1.00;;
67751;SDS011;54551;51.068;5.826;2022-12-29T02:59:39;1.17;;;1.00;;
67751;SDS011;54551;51.068;5.826;2022-12-29T03:02:10;3.13;;;1.13;;
67751;SDS011;54551;51.068;5.826;2022-12-29T03:05:14;2.17;;;0.80;;
67751;SDS011;54551;51.068;5.826;2022-12-29T03:13:55;1.53;;;1.00;;
67751;SDS011;54551;51.068;5.826;2022-12-29T03:16:48;1.17;;;0.70;;
67751;SDS011;54551;51.068;5.826;2022-12-29T03:21:56;1.10;;;0.70;;
67751;SDS011;54551;51.068;5.826;2022-12-29T03:24:49;1.63;;;0.80;;
67751;SDS011;54551;51.068;5.826;2022-12-29T03:27:22;2.13;;;0.90;;
67751;SDS011;54551;51.068;5.826;2022-12-29T03:29:54;1.53;;;0.77;;
67751;SDS011;54551;51.068;5.826;2022-12-29T03:32:25;1.23;;;0.80;;
67751;SDS011;54551;51.068;5.826;2022-12-29T03:34:56;1.00;;;0.70;;
67751;SDS011;54551;51.068;5.826;2022-12-29T03:37:25;1.90;;;0.80;;
67751;SDS011;54551;51.068;5.826;2022-12-29T03:39:56;2.30;;;0.70;;
67751;SDS011;54551;51.068;5.826;2022-12-29T03:42:23;2.00;;;0.83;;
67751;SDS011;54551;51.068;5.826;2022-12-29T03:44:53;3.10;;;1.00;;
67751;SDS011;54551;51.068;5.826;2022-12-29T03:47:22;3.37;;;0.97;;
67751;SDS011;54551;51.068;5.826;2022-12-29T03:49:50;2.10;;;0.70;;
67751;SDS011;54551;51.068;5.826;2022-12-29T03:52:16;2.00;;;0.90;;
67751;SDS011;54551;51.068;5.826;2022-12-29T03:54:44;4.00;;;0.93;;
67751;SDS011;54551;51.068;5.826;2022-12-29T03:57:11;2.40;;;1.43;;
67751;SDS011;54551;51.068;5.826;2022-12-29T03:59:56;1.77;;;0.80;;
67751;SDS011;54551;51.068;5.826;2022-12-29T04:02:22;1.73;;;0.80;;
67751;SDS011;54551;51.068;5.826;2022-12-29T04:04:49;3.23;;;1.00;;
67751;SDS011;54551;51.068;5.826;2022-12-29T04:07:15;0.93;;;0.70;;
67751;SDS011;54551;51.068;5.826;2022-12-29T04:09:41;2.20;;;0.70;;
67751;SDS011;54551;51.068;5.826;2022-12-29T04:12:10;2.93;;;1.10;;
67751;SDS011;54551;51.068;5.826;2022-12-29T04:14:36;1.30;;;0.77;;
67751;SDS011;54551;51.068;5.826;2022-12-29T04:17:02;2.20;;;0.83;;
67751;SDS011;54551;51.068;5.826;2022-12-29T04:19:29;2.43;;;0.90;;
67751;SDS011;54551;51.068;5.826;2022-12-29T04:21:54;2.47;;;1.13;;
67751;SDS011;54551;51.068;5.826;2022-12-29T04:24:20;1.67;;;0.93;;
67751;SDS011;54551;51.068;5.826;2022-12-29T04:26:48;1.77;;;0.90;;
67751;SDS011;54551;51.068;5.826;2022-12-29T04:29:37;2.10;;;0.93;;
67751;SDS011;54551;51.068;5.826;2022-12-29T04:32:23;0.97;;;0.80;;
67751;SDS011;54551;51.068;5.826;2022-12-29T04:34:52;1.80;;;0.90;;
67751;SDS011;54551;51.068;5.826;2022-12-29T04:37:18;1.93;;;0.93;;
67751;SDS011;54551;51.068;5.826;2022-12-29T04:39:44;3.00;;;1.00;;
67751;SDS011;54551;51.068;5.826;2022-12-29T04:42:10;2.77;;;0.83;;
67751;SDS011;54551;51.068;5.826;2022-12-29T04:44:36;3.33;;;0.90;;
67751;SDS011;54551;51.068;5.826;2022-12-29T04:47:34;2.43;;;0.97;;
67751;SDS011;54551;51.068;5.826;2022-12-29T04:50:20;3.97;;;1.20;;
67751;SDS011;54551;51.068;5.826;2022-12-29T04:52:53;1.53;;;0.83;;
67751;SDS011;54551;51.068;5.826;2022-12-29T04:55:20;0.70;;;0.70;;
67751;SDS011;54551;51.068;5.826;2022-12-29T04:57:46;3.80;;;1.13;;
67751;SDS011;54551;51.068;5.826;2022-12-29T05:00:16;2.30;;;1.27;;
67751;SDS011;54551;51.068;5.826;2022-12-29T05:02:42;3.30;;;1.20;;
67751;SDS011;54551;51.068;5.826;2022-12-29T05:05:08;3.40;;;1.00;;
67751;SDS011;54551;51.068;5.826;2022-12-29T05:07:39;4.70;;;1.00;;
67751;SDS011;54551;51.068;5.826;2022-12-29T05:10:06;2.23;;;0.80;;
67751;SDS011;54551;51.068;5.826;2022-12-29T05:12:34;4.17;;;1.20;;
67751;SDS011;54551;51.068;5.826;2022-12-29T05:15:01;3.03;;;1.20;;
67751;SDS011;54551;51.068;5.826;2022-12-29T05:17:28;3.87;;;1.00;;
67751;SDS011;54551;51.068;5.826;2022-12-29T05:19:54;0.97;;;0.93;;
67751;SDS011;54551;51.068;5.826;2022-12-29T05:22:21;2.77;;;0.93;;
67751;SDS011;54551;51.068;5.826;2022-12-29T05:24:48;2.83;;;1.40;;
67751;SDS011;54551;51.068;5.826;2022-12-29T05:27:14;3.07;;;1.30;;
67751;SDS011;54551;51.068;5.826;2022-12-29T05:29:47;1.80;;;1.00;;
67751;SDS011;54551;51.068;5.826;2022-12-29T05:32:14;2.97;;;1.03;;
67751;SDS011;54551;51.068;5.826;2022-12-29T05:34:41;1.67;;;0.80;;
67751;SDS011;54551;51.068;5.826;2022-12-29T05:37:06;2.03;;;1.00;;
67751;SDS011;54551;51.068;5.826;2022-12-29T05:39:33;1.37;;;0.63;;
67751;SDS011;54551;51.068;5.826;2022-12-29T05:42:01;4.60;;;1.67;;
67751;SDS011;54551;51.068;5.826;2022-12-29T05:44:47;3.73;;;1.00;;
67751;SDS011;54551;51.068;5.826;2022-12-29T05:47:23;4.33;;;1.20;;
67751;SDS011;54551;51.068;5.826;2022-12-29T05:50:09;3.43;;;1.30;;
67751;SDS011;54551;51.068;5.826;2022-12-29T05:52:58;3.93;;;1.27;;
67751;SDS011;54551;51.068;5.826;2022-12-29T05:55:24;2.83;;;1.40;;
67751;SDS011;54551;51.068;5.826;2022-12-29T05:57:52;2.00;;;0.90;;
67751;SDS011;54551;51.068;5.826;2022-12-29T06:00:18;3.00;;;1.00;;
67751;SDS011;54551;51.068;5.826;2022-12-29T06:02:45;2.27;;;1.13;;
67751;SDS011;54551;51.068;5.826;2022-12-29T06:05:12;4.20;;;1.20;;
67751;SDS011;54551;51.068;5.826;2022-12-29T06:07:38;4.03;;;1.10;;
67751;SDS011;54551;51.068;5.826;2022-12-29T06:10:05;3.50;;;0.90;;
67751;SDS011;54551;51.068;5.826;2022-12-29T06:12:38;2.53;;;1.27;;
67751;SDS011;54551;51.068;5.826;2022-12-29T06:15:04;4.47;;;1.27;;
67751;SDS011;54551;51.068;5.826;2022-12-29T06:17:31;3.20;;;1.13;;
67751;SDS011;54551;51.068;5.826;2022-12-29T06:19:57;4.00;;;1.23;;
67751;SDS011;54551;51.068;5.826;2022-12-29T06:22:23;3.03;;;1.20;;
67751;SDS011;54551;51.068;5.826;2022-12-29T06:24:49;3.50;;;1.60;;
67751;SDS011;54551;51.068;5.826;2022-12-29T06:27:15;3.30;;;1.00;;
67751;SDS011;54551;51.068;5.826;2022-12-29T06:29:41;8.73;;;1.53;;
67751;SDS011;54551;51.068;5.826;2022-12-29T06:32:08;2.83;;;1.20;;
67751;SDS011;54551;51.068;5.826;2022-12-29T06:34:35;5.50;;;1.33;;
67751;SDS011;54551;51.068;5.826;2022-12-29T06:37:01;6.20;;;1.80;;
67751;SDS011;54551;51.068;5.826;2022-12-29T06:39:27;8.20;;;1.70;;
67751;SDS011;54551;51.068;5.826;2022-12-29T06:42:01;5.17;;;1.43;;
67751;SDS011;54551;51.068;5.826;2022-12-29T06:44:54;5.70;;;1.40;;
67751;SDS011;54551;51.068;5.826;2022-12-29T06:47:22;4.03;;;1.40;;
67751;SDS011;54551;51.068;5.826;2022-12-29T06:49:48;3.53;;;1.30;;
67751;SDS011;54551;51.068;5.826;2022-12-29T06:52:15;3.40;;;1.40;;
67751;SDS011;54551;51.068;5.826;2022-12-29T06:54:41;9.03;;;1.30;;
67751;SDS011;54551;51.068;5.826;2022-12-29T06:57:06;4.57;;;1.30;;
67751;SDS011;54551;51.068;5.826;2022-12-29T06:59:32;6.03;;;1.33;;
67751;SDS011;54551;51.068;5.826;2022-12-29T07:01:58;3.77;;;1.27;;
67751;SDS011;54551;51.068;5.826;2022-12-29T07:04:24;5.30;;;1.73;;
67751;SDS011;54551;51.068;5.826;2022-12-29T07:06:50;6.30;;;1.50;;
67751;SDS011;54551;51.068;5.826;2022-12-29T07:09:16;7.63;;;1.60;;
67751;SDS011;54551;51.068;5.826;2022-12-29T07:11:42;4.13;;;1.00;;
67751;SDS011;54551;51.068;5.826;2022-12-29T07:14:08;5.63;;;1.63;;
67751;SDS011;54551;51.068;5.826;2022-12-29T07:16:35;3.53;;;1.23;;
67751;SDS011;54551;51.068;5.826;2022-12-29T07:19:02;4.40;;;1.17;;
67751;SDS011;54551;51.068;5.826;2022-12-29T07:21:28;3.77;;;1.27;;
67751;SDS011;54551;51.068;5.826;2022-12-29T07:23:54;4.33;;;1.40;;
67751;SDS011;54551;51.068;5.826;2022-12-29T07:26:20;8.30;;;2.03;;
67751;SDS011;54551;51.068;5.826;2022-12-29T07:28:46;5.23;;;1.40;;
67751;SDS011;54551;51.068;5.826;2022-12-29T07:31:19;7.37;;;2.00;;
67751;SDS011;54551;51.068;5.826;2022-12-29T07:33:47;3.17;;;1.20;;
67751;SDS011;54551;51.068;5.826;2022-12-29T07:36:13;4.80;;;1.50;;
67751;SDS011;54551;51.068;5.826;2022-12-29T07:38:41;4.33;;;1.40;;
67751;SDS011;54551;51.068;5.826;2022-12-29T07:41:07;6.07;;;1.60;;
67751;SDS011;54551;51.068;5.826;2022-12-29T07:43:34;6.47;;;1.70;;
67751;SDS011;54551;51.068;5.826;2022-12-29T07:46:23;6.67;;;2.00;;
67751;SDS011;54551;51.068;5.826;2022-12-29T07:48:49;5.97;;;1.63;;
67751;SDS011;54551;51.068;5.826;2022-12-29T07:51:15;8.63;;;1.70;;
67751;SDS011;54551;51.068;5.826;2022-12-29T07:53:40;7.33;;;1.53;;
67751;SDS011;54551;51.068;5.826;2022-12-29T07:56:06;4.73;;;1.33;;
67751;SDS011;54551;51.068;5.826;2022-12-29T07:58:32;5.07;;;1.60;;
67751;SDS011;54551;51.068;5.826;2022-12-29T08:00:58;3.77;;;1.33;;
67751;SDS011;54551;51.068;5.826;2022-12-29T08:03:24;4.67;;;1.40;;
67751;SDS011;54551;51.068;5.826;2022-12-29T08:05:51;5.73;;;1.53;;
67751;SDS011;54551;51.068;5.826;2022-12-29T08:08:17;5.60;;;2.10;;
67751;SDS011;54551;51.068;5.826;2022-12-29T08:10:43;6.23;;;1.70;;
67751;SDS011;54551;51.068;5.826;2022-12-29T08:13:09;6.20;;;1.90;;
67751;SDS011;54551;51.068;5.826;2022-12-29T08:15:36;9.57;;;2.07;;
67751;SDS011;54551;51.068;5.826;2022-12-29T08:18:02;7.93;;;1.90;;
67751;SDS011;54551;51.068;5.826;2022-12-29T08:20:29;4.03;;;1.60;;
67751;SDS011;54551;51.068;5.826;2022-12-29T08:22:55;5.47;;;1.40;;
67751;SDS011;54551;51.068;5.826;2022-12-29T08:25:20;5.10;;;2.07;;
67751;SDS011;54551;51.068;5.826;2022-12-29T08:27:46;9.47;;;1.77;;
67751;SDS011;54551;51.068;5.826;2022-12-29T08:30:15;7.77;;;1.73;;
67751;SDS011;54551;51.068;5.826;2022-12-29T08:32:41;5.73;;;1.53;;
67751;SDS011;54551;51.068;5.826;2022-12-29T08:35:07;6.43;;;2.10;;
67751;SDS011;54551;51.068;5.826;2022-12-29T08:37:34;7.13;;;2.20;;
67751;SDS011;54551;51.068;5.826;2022-12-29T08:40:00;4.50;;;1.60;;
67751;SDS011;54551;51.068;5.826;2022-12-29T08:42:29;5.87;;;1.80;;
67751;SDS011;54551;51.068;5.826;2022-12-29T08:44:56;8.03;;;1.90;;
67751;SDS011;54551;51.068;5.826;2022-12-29T08:47:23;5.73;;;1.97;;
67751;SDS011;54551;51.068;5.826;2022-12-29T08:49:49;4.33;;;1.60;;
67751;SDS011;54551;51.068;5.826;2022-12-29T08:52:15;6.90;;;1.70;;
67751;SDS011;54551;51.068;5.826;2022-12-29T08:54:41;7.37;;;1.53;;
67751;SDS011;54551;51.068;5.826;2022-12-29T08:57:06;7.43;;;1.63;;
67751;SDS011;54551;51.068;5.826;2022-12-29T08:59:38;9.00;;;1.83;;
67751;SDS011;54551;51.068;5.826;2022-12-29T09:02:04;7.63;;;1.57;;
67751;SDS011;54551;51.068;5.826;2022-12-29T09:04:30;6.83;;;2.00;;
67751;SDS011;54551;51.068;5.826;2022-12-29T09:06:55;7.10;;;1.73;;
67751;SDS011;54551;51.068;5.826;2022-12-29T09:09:21;5.80;;;2.00;;
67751;SDS011;54551;51.068;5.826;2022-12-29T09:11:47;10.27;;;2.70;;
67751;SDS011;54551;51.068;5.826;2022-12-29T09:14:13;3.63;;;1.53;;
67751;SDS011;54551;51.068;5.826;2022-12-29T09:16:39;6.10;;;1.63;;
67751;SDS011;54551;51.068;5.826;2022-12-29T09:19:24;9.23;;;1.63;;
67751;SDS011;54551;51.068;5.826;2022-12-29T09:21:50;7.47;;;2.00;;
67751;SDS011;54551;51.068;5.826;2022-12-29T09:24:16;5.60;;;1.50;;
67751;SDS011;54551;51.068;5.826;2022-12-29T09:26:42;5.57;;;1.50;;
67751;SDS011;54551;51.068;5.826;2022-12-29T09:29:07;4.87;;;1.60;;
67751;SDS011;54551;51.068;5.826;2022-12-29T09:31:33;7.90;;;1.70;;
67751;SDS011;54551;51.068;5.826;2022-12-29T09:33:59;6.70;;;1.97;;
67751;SDS011;54551;51.068;5.826;2022-12-29T09:36:25;7.07;;;1.83;;
67751;SDS011;54551;51.068;5.826;2022-12-29T09:38:52;6.93;;;2.13;;
67751;SDS011;54551;51.068;5.826;2022-12-29T09:41:52;5.50;;;1.93;;
67751;SDS011;54551;51.068;5.826;2022-12-29T09:47:21;7.50;;;1.80;;
67751;SDS011;54551;51.068;5.826;2022-12-29T09:52:42;4.67;;;1.77;;
67751;SDS011;54551;51.068;5.826;2022-12-29T09:55:15;10.47;;;2.20;;
67751;SDS011;54551;51.068;5.826;2022-12-29T09:57:54;8.13;;;2.10;;
67751;SDS011;54551;51.068;5.826;2022-12-29T10:00:48;7.00;;;2.13;;
67751;SDS011;54551;51.068;5.826;2022-12-29T10:03:26;10.70;;;2.33;;
67751;SDS011;54551;51.068;5.826;2022-12-29T10:06:08;6.13;;;1.80;;
67751;SDS011;54551;51.068;5.826;2022-12-29T10:11:32;6.80;;;1.77;;
67751;SDS011;54551;51.068;5.826;2022-12-29T10:14:14;7.17;;;1.70;;
67751;SDS011;54551;51.068;5.826;2022-12-29T10:25:16;7.77;;;2.33;;
67751;SDS011;54551;51.068;5.826;2022-12-29T10:27:47;6.87;;;1.90;;
67751;SDS011;54551;51.068;5.826;2022-12-29T10:30:14;6.97;;;2.43;;
67751;SDS011;54551;51.068;5.826;2022-12-29T10:32:45;7.37;;;2.17;;
67751;SDS011;54551;51.068;5.826;2022-12-29T10:35:22;6.30;;;2.13;;
67751;SDS011;54551;51.068;5.826;2022-12-29T10:38:04;9.40;;;2.17;;
67751;SDS011;54551;51.068;5.826;2022-12-29T10:41:00;7.73;;;2.20;;
67751;SDS011;54551;51.068;5.826;2022-12-29T10:43:44;9.37;;;2.00;;
67751;SDS011;54551;51.068;5.826;2022-12-29T10:46:14;6.93;;;2.20;;
67751;SDS011;54551;51.068;5.826;2022-12-29T10:48:45;6.63;;;1.90;;
67751;SDS011;54551;51.068;5.826;2022-12-29T10:51:15;10.23;;;2.00;;
67751;SDS011;54551;51.068;5.826;2022-12-29T10:53:49;9.93;;;2.07;;
67751;SDS011;54551;51.068;5.826;2022-12-29T10:59:16;7.87;;;2.13;;
67751;SDS011;54551;51.068;5.826;2022-12-29T11:01:56;8.07;;;2.17;;
67751;SDS011;54551;51.068;5.826;2022-12-29T11:07:20;5.10;;;1.73;;
67751;SDS011;54551;51.068;5.826;2022-12-29T11:09:46;12.60;;;3.37;;
67751;SDS011;54551;51.068;5.826;2022-12-29T11:17:48;9.93;;;2.57;;
67751;SDS011;54551;51.068;5.826;2022-12-29T11:20:35;7.77;;;2.27;;
67751;SDS011;54551;51.068;5.826;2022-12-29T11:23:04;8.83;;;2.20;;
67751;SDS011;54551;51.068;5.826;2022-12-29T11:25:54;5.60;;;1.60;;
67751;SDS011;54551;51.068;5.826;2022-12-29T11:28:47;9.57;;;1.93;;
67751;SDS011;54551;51.068;5.826;2022-12-29T11:31:29;7.73;;;1.90;;
67751;SDS011;54551;51.068;5.826;2022-12-29T11:33:55;8.93;;;2.37;;
67751;SDS011;54551;51.068;5.826;2022-12-29T11:36:21;7.47;;;2.50;;
67751;SDS011;54551;51.068;5.826;2022-12-29T11:38:52;6.67;;;2.10;;
67751;SDS011;54551;51.068;5.826;2022-12-29T11:41:21;7.63;;;2.37;;
67751;SDS011;54551;51.068;5.826;2022-12-29T11:43:52;6.83;;;1.70;;
67751;SDS011;54551;51.068;5.826;2022-12-29T11:46:24;6.10;;;1.93;;
67751;SDS011;54551;51.068;5.826;2022-12-29T11:48:53;6.47;;;1.83;;
67751;SDS011;54551;51.068;5.826;2022-12-29T11:51:23;11.27;;;2.57;;
67751;SDS011;54551;51.068;5.826;2022-12-29T11:53:57;8.93;;;1.77;;
67751;SDS011;54551;51.068;5.826;2022-12-29T11:56:45;9.63;;;2.73;;
67751;SDS011;54551;51.068;5.826;2022-12-29T11:59:24;6.30;;;1.87;;
67751;SDS011;54551;51.068;5.826;2022-12-29T12:01:56;7.20;;;2.30;;
67751;SDS011;54551;51.068;5.826;2022-12-29T12:04:24;8.00;;;2.10;;
67751;SDS011;54551;51.068;5.826;2022-12-29T12:07:11;12.37;;;2.60;;
67751;SDS011;54551;51.068;5.826;2022-12-29T12:09:43;8.53;;;2.30;;
67751;SDS011;54551;51.068;5.826;2022-12-29T12:15:27;7.63;;;2.20;;
67751;SDS011;54551;51.068;5.826;2022-12-29T12:18:08;7.73;;;2.30;;
67751;SDS011;54551;51.068;5.826;2022-12-29T12:20:41;13.77;;;2.50;;
67751;SDS011;54551;51.068;5.826;2022-12-29T12:26:28;7.97;;;2.10;;
67751;SDS011;54551;51.068;5.826;2022-12-29T12:31:59;5.93;;;2.17;;
67751;SDS011;54551;51.068;5.826;2022-12-29T12:34:36;7.17;;;1.73;;
67751;SDS011;54551;51.068;5.826;2022-12-29T12:37:07;7.07;;;2.07;;
67751;SDS011;54551;51.068;5.826;2022-12-29T12:39:39;6.20;;;2.17;;
67751;SDS011;54551;51.068;5.826;2022-12-29T12:50:50;6.77;;;2.00;;
67751;SDS011;54551;51.068;5.826;2022-12-29T13:01:42;8.90;;;2.17;;
67751;SDS011;54551;51.068;5.826;2022-12-29T13:06:54;10.37;;;2.40;;
67751;SDS011;54551;51.068;5.826;2022-12-29T13:09:48;7.17;;;2.17;;
67751;SDS011;54551;51.068;5.826;2022-12-29T13:18:26;4.70;;;1.60;;
67751;SDS011;54551;51.068;5.826;2022-12-29T13:21:07;4.73;;;1.80;;
67751;SDS011;54551;51.068;5.826;2022-12-29T13:35:40;8.23;;;2.00;;
67751;SDS011;54551;51.068;5.826;2022-12-29T13:40:45;9.67;;;2.20;;
67751;SDS011;54551;51.068;5.826;2022-12-29T13:43:14;9.47;;;1.90;;
67751;SDS011;54551;51.068;5.826;2022-12-29T13:45:43;7.37;;;2.90;;
67751;SDS011;54551;51.068;5.826;2022-12-29T13:48:14;14.90;;;2.27;;
67751;SDS011;54551;51.068;5.826;2022-12-29T13:50:58;5.63;;;1.87;;
67751;SDS011;54551;51.068;5.826;2022-12-29T13:56:31;6.53;;;2.03;;
67751;SDS011;54551;51.068;5.826;2022-12-29T14:04:59;7.30;;;1.87;;
67751;SDS011;54551;51.068;5.826;2022-12-29T14:07:25;7.33;;;1.97;;
67751;SDS011;54551;51.068;5.826;2022-12-29T14:09:53;6.67;;;1.57;;
67751;SDS011;54551;51.068;5.826;2022-12-29T14:15:03;12.37;;;2.23;;
67751;SDS011;54551;51.068;5.826;2022-12-29T14:17:42;5.60;;;1.63;;
67751;SDS011;54551;51.068;5.826;2022-12-29T14:20:20;7.13;;;1.70;;
67751;SDS011;54551;51.068;5.826;2022-12-29T14:23:01;6.47;;;2.00;;
67751;SDS011;54551;51.068;5.826;2022-12-29T14:28:29;6.83;;;1.80;;
67751;SDS011;54551;51.068;5.826;2022-12-29T14:30:58;8.50;;;2.00;;
67751;SDS011;54551;51.068;5.826;2022-12-29T14:33:27;9.33;;;2.57;;
67751;SDS011;54551;51.068;5.826;2022-12-29T14:35:55;9.57;;;2.37;;
67751;SDS011;54551;51.068;5.826;2022-12-29T14:38:23;4.93;;;1.83;;
67751;SDS011;54551;51.068;5.826;2022-12-29T14:40:52;7.83;;;1.63;;
67751;SDS011;54551;51.068;5.826;2022-12-29T14:43:39;8.67;;;1.80;;
67751;SDS011;54551;51.068;5.826;2022-12-29T14:46:05;10.87;;;2.20;;
67751;SDS011;54551;51.068;5.826;2022-12-29T14:48:37;4.20;;;2.07;;
67751;SDS011;54551;51.068;5.826;2022-12-29T14:51:20;12.30;;;2.83;;
67751;SDS011;54551;51.068;5.826;2022-12-29T14:57:02;13.37;;;3.13;;
67751;SDS011;54551;51.068;5.826;2022-12-29T14:59:31;9.30;;;2.37;;
67751;SDS011;54551;51.068;5.826;2022-12-29T15:01:59;9.77;;;2.23;;
67751;SDS011;54551;51.068;5.826;2022-12-29T15:04:31;5.90;;;1.80;;
67751;SDS011;54551;51.068;5.826;2022-12-29T15:06:59;10.60;;;2.80;;
67751;SDS011;54551;51.068;5.826;2022-12-29T15:14:54;10.53;;;2.37;;
67751;SDS011;54551;51.068;5.826;2022-12-29T15:19:55;9.77;;;2.90;;
67751;SDS011;54551;51.068;5.826;2022-12-29T15:22:22;11.67;;;2.63;;
67751;SDS011;54551;51.068;5.826;2022-12-29T15:24:50;6.30;;;2.13;;
67751;SDS011;54551;51.068;5.826;2022-12-29T15:27:24;16.33;;;2.97;;
67751;SDS011;54551;51.068;5.826;2022-12-29T15:29:56;7.37;;;2.33;;
67751;SDS011;54551;51.068;5.826;2022-12-29T15:32:29;12.20;;;2.57;;
67751;SDS011;54551;51.068;5.826;2022-12-29T15:35:14;10.00;;;2.70;;
67751;SDS011;54551;51.068;5.826;2022-12-29T15:37:48;10.33;;;2.60;;
67751;SDS011;54551;51.068;5.826;2022-12-29T15:40:21;11.03;;;3.03;;
67751;SDS011;54551;51.068;5.826;2022-12-29T15:45:34;10.13;;;2.90;;
67751;SDS011;54551;51.068;5.826;2022-12-29T15:48:01;12.03;;;2.27;;
67751;SDS011;54551;51.068;5.826;2022-12-29T15:52:54;9.37;;;2.37;;
67751;SDS011;54551;51.068;5.826;2022-12-29T15:55:42;8.77;;;2.70;;
67751;SDS011;54551;51.068;5.826;2022-12-29T15:58:22;9.53;;;2.30;;
67751;SDS011;54551;51.068;5.826;2022-12-29T16:00:57;9.10;;;2.20;;
67751;SDS011;54551;51.068;5.826;2022-12-29T16:03:25;10.67;;;2.63;;
67751;SDS011;54551;51.068;5.826;2022-12-29T16:06:38;12.83;;;2.57;;
67751;SDS011;54551;51.068;5.826;2022-12-29T16:09:05;9.60;;;2.43;;
67751;SDS011;54551;51.068;5.826;2022-12-29T16:11:46;6.63;;;2.03;;
67751;SDS011;54551;51.068;5.826;2022-12-29T16:14:16;8.10;;;2.20;;
67751;SDS011;54551;51.068;5.826;2022-12-29T16:16:46;8.07;;;2.27;;
67751;SDS011;54551;51.068;5.826;2022-12-29T16:19:27;5.97;;;2.00;;
67751;SDS011;54551;51.068;5.826;2022-12-29T16:21:59;7.80;;;2.13;;
67751;SDS011;54551;51.068;5.826;2022-12-29T16:24:28;5.43;;;2.10;;
67751;SDS011;54551;51.068;5.826;2022-12-29T16:27:07;6.67;;;1.90;;
67751;SDS011;54551;51.068;5.826;2022-12-29T16:29:35;8.00;;;2.47;;
67751;SDS011;54551;51.068;5.826;2022-12-29T16:32:01;8.20;;;2.60;;
67751;SDS011;54551;51.068;5.826;2022-12-29T16:34:32;9.37;;;2.60;;
67751;SDS011;54551;51.068;5.826;2022-12-29T16:39:56;9.73;;;2.80;;
67751;SDS011;54551;51.068;5.826;2022-12-29T16:43:02;10.57;;;2.57;;
67751;SDS011;54551;51.068;5.826;2022-12-29T16:50:39;11.73;;;2.90;;
67751;SDS011;54551;51.068;5.826;2022-12-29T16:53:16;7.00;;;2.03;;
67751;SDS011;54551;51.068;5.826;2022-12-29T16:55:46;6.53;;;1.77;;
67751;SDS011;54551;51.068;5.826;2022-12-29T16:58:16;7.20;;;1.77;;
67751;SDS011;54551;51.068;5.826;2022-12-29T17:00:46;8.43;;;2.20;;
67751;SDS011;54551;51.068;5.826;2022-12-29T17:03:12;5.20;;;1.87;;
67751;SDS011;54551;51.068;5.826;2022-12-29T17:05:39;9.10;;;1.80;;
67751;SDS011;54551;51.068;5.826;2022-12-29T17:08:18;7.60;;;2.43;;
67751;SDS011;54551;51.068;5.826;2022-12-29T17:10:49;12.70;;;7.93;;
67751;SDS011;54551;51.068;5.826;2022-12-29T17:13:38;13.77;;;4.07;;
67751;SDS011;54551;51.068;5.826;2022-12-29T17:16:07;14.47;;;3.70;;
67751;SDS011;54551;51.068;5.826;2022-12-29T17:18:35;10.90;;;3.40;;
67751;SDS011;54551;51.068;5.826;2022-12-29T17:21:02;13.13;;;3.50;;
67751;SDS011;54551;51.068;5.826;2022-12-29T17:23:28;12.57;;;2.93;;
67751;SDS011;54551;51.068;5.826;2022-12-29T17:25:56;15.43;;;3.50;;
67751;SDS011;54551;51.068;5.826;2022-12-29T17:28:23;14.07;;;3.90;;
67751;SDS011;54551;51.068;5.826;2022-12-29T17:30:53;11.27;;;3.20;;
67751;SDS011;54551;51.068;5.826;2022-12-29T17:33:22;13.60;;;3.30;;
67751;SDS011;54551;51.068;5.826;2022-12-29T17:35:48;13.60;;;3.47;;
67751;SDS011;54551;51.068;5.826;2022-12-29T17:40:39;12.13;;;3.20;;
67751;SDS011;54551;51.068;5.826;2022-12-29T17:43:07;12.60;;;3.60;;
67751;SDS011;54551;51.068;5.826;2022-12-29T17:45:38;14.43;;;2.83;;
67751;SDS011;54551;51.068;5.826;2022-12-29T17:48:12;11.57;;;3.43;;